Time;durP1;ratioP1;P1;durP2;ratioP2;P2;SDS_P1;SDS_P2;PMS_P1;PMS_P2;Temp;Humidity;BMP_temperature;BMP_pressure;BME280_temperature;BME280_humidity;BME280_pressure;Samples;Min_cycle;Max_cycle;Signal;HPM_P1;HPM_P2
2022/02/18 00:01:17;;;;;;;4.30;1.02;;;;;;;;;;5067178;28;20537;-51
2022/02/18 00:03:45;;;;;;;4.50;1.30;;;;;;;;;;5067997;28;20030;-52
2022/02/18 00:06:11;;;;;;;6.30;1.00;;;;;;;;;;5071350;28;20032;-51
2022/02/18 00:08:37;;;;;;;8.77;1.02;;;;;;;;;;5071814;28;20579;-52
2022/02/18 00:11:04;;;;;;;3.28;0.80;;;;;;;;;;5069862;28;20125;-50
2022/02/18 00:13:30;;;;;;;6.25;1.10;;;;;;;;;;5068215;28;20131;-50
2022/02/18 00:15:56;;;;;;;3.90;0.90;;;;;;;;;;5071776;28;20525;-54
2022/02/18 00:18:22;;;;;;;9.60;1.02;;;;;;;;;;5069649;28;20033;-52
2022/02/18 00:20:48;;;;;;;11.43;1.40;;;;;;;;;;5070591;28;20483;-53
2022/02/18 00:23:14;;;;;;;2.03;0.93;;;;;;;;;;5061496;28;20036;-53
2022/02/18 00:25:40;;;;;;;5.45;1.25;;;;;;;;;;5055829;28;20028;-55
2022/02/18 00:28:06;;;;;;;6.47;1.40;;;;;;;;;;5067838;28;20460;-55
2022/02/18 00:30:32;;;;;;;6.40;1.33;;;;;;;;;;5067245;28;20039;-53
2022/02/18 00:32:58;;;;;;;8.38;1.38;;;;;;;;;;5069925;28;20033;-52
2022/02/18 00:35:24;;;;;;;5.45;1.33;;;;;;;;;;5071923;28;20345;-53
2022/02/18 00:37:57;;;;;;;5.78;0.98;;;;;;;;;;5064411;28;20029;-53
2022/02/18 00:40:25;;;;;;;11.02;1.40;;;;;;;;;;5073024;28;20074;-52
2022/02/18 00:42:51;;;;;;;7.57;1.77;;;;;;;;;;5072800;28;20486;-52
2022/02/18 00:45:17;;;;;;;7.30;1.33;;;;;;;;;;5065908;28;20035;-54
2022/02/18 00:47:43;;;;;;;4.78;1.08;;;;;;;;;;5067575;28;20377;-53
2022/02/18 00:50:09;;;;;;;8.63;1.00;;;;;;;;;;5067435;28;20044;-52
2022/02/18 00:52:35;;;;;;;6.47;1.65;;;;;;;;;;5070739;28;20468;-55
2022/02/18 00:55:01;;;;;;;4.43;1.08;;;;;;;;;;5066516;28;20124;-54
2022/02/18 00:57:27;;;;;;;5.63;1.27;;;;;;;;;;5068216;28;20061;-53
2022/02/18 00:59:53;;;;;;;4.40;0.98;;;;;;;;;;5066201;28;20079;-49
2022/02/18 01:02:19;;;;;;;10.45;1.20;;;;;;;;;;5068435;28;20079;-49
2022/02/18 01:04:45;;;;;;;3.97;1.52;;;;;;;;;;5066831;28;20428;-50
2022/02/18 01:07:11;;;;;;;6.68;1.33;;;;;;;;;;5068399;28;20032;-49
2022/02/18 01:09:37;;;;;;;3.55;0.95;;;;;;;;;;5066995;28;20025;-50
2022/02/18 01:12:03;;;;;;;10.18;1.60;;;;;;;;;;5072540;28;20086;-54
2022/02/18 01:14:29;;;;;;;10.98;2.00;;;;;;;;;;5068172;28;20029;-51
2022/02/18 01:16:55;;;;;;;6.28;1.20;;;;;;;;;;5069442;28;20483;-54
2022/02/18 01:19:22;;;;;;;6.20;1.20;;;;;;;;;;5068612;28;20029;-52
2022/02/18 01:21:48;;;;;;;5.15;1.15;;;;;;;;;;5064635;28;20094;-50
2022/02/18 01:24:14;;;;;;;4.93;1.10;;;;;;;;;;5065352;28;20028;-53
2022/02/18 01:26:40;;;;;;;6.60;1.58;;;;;;;;;;5056390;28;20040;-49
2022/02/18 01:29:06;;;;;;;8.20;1.23;;;;;;;;;;5060669;28;20068;-50
2022/02/18 01:31:32;;;;;;;3.78;1.02;;;;;;;;;;5063659;28;20032;-46
2022/02/18 01:33:58;;;;;;;3.90;1.10;;;;;;;;;;5069032;28;20033;-48
2022/02/18 01:36:24;;;;;;;7.43;1.50;;;;;;;;;;5072313;28;20078;-51
2022/02/18 01:38:50;;;;;;;8.75;1.27;;;;;;;;;;5054755;28;20025;-48
2022/02/18 01:41:16;;;;;;;9.63;1.77;;;;;;;;;;5064737;28;20388;-48
2022/02/18 01:43:53;;;;;;;8.82;1.52;;;;;;;;;;5071897;28;20029;-47
2022/02/18 01:46:19;;;;;;;6.63;1.45;;;;;;;;;;5053656;28;20032;-48
2022/02/18 01:48:45;;;;;;;5.18;1.10;;;;;;;;;;5060141;28;20059;-48
2022/02/18 01:51:11;;;;;;;6.03;0.98;;;;;;;;;;5067104;28;20032;-52
2022/02/18 01:53:38;;;;;;;7.10;1.17;;;;;;;;;;5065676;28;20068;-49
2022/02/18 01:56:04;;;;;;;3.83;1.13;;;;;;;;;;5080072;28;20036;-50
2022/02/18 01:58:30;;;;;;;13.02;2.28;;;;;;;;;;5063016;28;20025;-54
2022/02/18 02:00:57;;;;;;;3.00;0.90;;;;;;;;;;5062429;28;20100;-49
2022/02/18 02:03:23;;;;;;;6.70;1.30;;;;;;;;;;5071483;28;20095;-49
2022/02/18 02:05:51;;;;;;;5.15;1.27;;;;;;;;;;5070349;28;20033;-48
2022/02/18 02:08:17;;;;;;;4.90;0.80;;;;;;;;;;5062185;28;20044;-46
2022/02/18 02:10:44;;;;;;;4.45;1.08;;;;;;;;;;5070737;28;20017;-48
2022/02/18 02:13:11;;;;;;;5.70;1.60;;;;;;;;;;5067462;28;20029;-47
2022/02/18 02:15:37;;;;;;;6.38;1.35;;;;;;;;;;5068005;28;20043;-49
2022/02/18 02:18:03;;;;;;;13.05;1.65;;;;;;;;;;5068001;28;20024;-48
2022/02/18 02:20:30;;;;;;;5.43;1.05;;;;;;;;;;5065283;28;20059;-47
2022/02/18 02:22:56;;;;;;;7.55;0.90;;;;;;;;;;5068757;28;20075;-47
2022/02/18 02:25:22;;;;;;;3.90;1.10;;;;;;;;;;5058826;28;20036;-48
2022/02/18 02:27:48;;;;;;;3.38;0.88;;;;;;;;;;5060081;28;20036;-50
2022/02/18 02:30:15;;;;;;;9.35;1.30;;;;;;;;;;5066191;28;20059;-50
2022/02/18 02:32:41;;;;;;;6.93;1.30;;;;;;;;;;5070951;28;20032;-46
2022/02/18 02:35:07;;;;;;;4.20;1.00;;;;;;;;;;5070034;28;20044;-47
2022/02/18 02:37:33;;;;;;;7.85;1.08;;;;;;;;;;5066888;28;20129;-49
2022/02/18 02:39:59;;;;;;;8.55;1.13;;;;;;;;;;5072121;28;20113;-50
2022/02/18 02:42:25;;;;;;;4.57;1.10;;;;;;;;;;5071178;28;20580;-47
2022/02/18 02:44:51;;;;;;;7.07;1.10;;;;;;;;;;5065556;28;20469;-50
2022/02/18 02:47:17;;;;;;;8.02;1.00;;;;;;;;;;5065344;28;20075;-47
2022/02/18 02:49:43;;;;;;;6.15;1.52;;;;;;;;;;5069034;28;20032;-47
2022/02/18 02:52:09;;;;;;;4.70;1.02;;;;;;;;;;5069627;28;20043;-51
2022/02/18 02:54:35;;;;;;;11.00;1.70;;;;;;;;;;5065416;28;20037;-48
2022/02/18 02:57:01;;;;;;;2.92;1.30;;;;;;;;;;5058931;28;20099;-50
2022/02/18 02:59:28;;;;;;;8.35;1.52;;;;;;;;;;5062588;28;20056;-51
2022/02/18 03:01:54;;;;;;;5.03;1.10;;;;;;;;;;5063196;28;20161;-49
2022/02/18 03:04:20;;;;;;;8.82;1.25;;;;;;;;;;5063321;28;20032;-48
2022/02/18 03:06:46;;;;;;;7.82;1.33;;;;;;;;;;5065942;28;20032;-48
2022/02/18 03:09:12;;;;;;;6.93;1.77;;;;;;;;;;5063881;28;20052;-47
2022/02/18 03:11:38;;;;;;;6.65;1.40;;;;;;;;;;5070240;28;20105;-50
2022/02/18 03:14:05;;;;;;;3.17;1.13;;;;;;;;;;5055957;28;20036;-48
2022/02/18 03:16:31;;;;;;;3.35;1.00;;;;;;;;;;5064967;28;20614;-49
2022/02/18 03:18:57;;;;;;;6.25;1.52;;;;;;;;;;5071509;28;20380;-47
2022/02/18 03:21:23;;;;;;;9.10;1.48;;;;;;;;;;5055707;28;20033;-50
2022/02/18 03:23:49;;;;;;;8.45;1.13;;;;;;;;;;5069536;28;20032;-47
2022/02/18 03:26:16;;;;;;;5.38;1.10;;;;;;;;;;5071002;28;20025;-47
2022/02/18 03:28:42;;;;;;;5.15;1.17;;;;;;;;;;5059049;28;20473;-47
2022/02/18 03:31:09;;;;;;;10.85;1.50;;;;;;;;;;5054519;28;20079;-47
2022/02/18 03:33:36;;;;;;;6.35;1.20;;;;;;;;;;5072067;28;20021;-49
2022/02/18 03:36:03;;;;;;;5.55;1.45;;;;;;;;;;5071015;28;20025;-50
2022/02/18 03:38:29;;;;;;;8.77;1.50;;;;;;;;;;5061250;28;20044;-48
2022/02/18 03:40:55;;;;;;;2.97;1.33;;;;;;;;;;5068785;28;20032;-47
2022/02/18 03:43:21;;;;;;;3.92;1.23;;;;;;;;;;5071975;28;20032;-48
2022/02/18 03:45:47;;;;;;;5.80;1.75;;;;;;;;;;5071814;28;20418;-52
2022/02/18 03:48:12;;;;;;;5.72;1.20;;;;;;;;;;5063617;28;20040;-47
2022/02/18 03:50:40;;;;;;;7.50;1.48;;;;;;;;;;5069437;28;20021;-48
2022/02/18 03:53:06;;;;;;;5.90;1.08;;;;;;;;;;5059700;28;20503;-48
2022/02/18 03:55:32;;;;;;;6.53;1.45;;;;;;;;;;5067024;28;20036;-47
2022/02/18 03:57:58;;;;;;;3.45;1.45;;;;;;;;;;5060765;28;20119;-48
2022/02/18 04:00:24;;;;;;;9.93;1.25;;;;;;;;;;5061326;28;20037;-48
2022/02/18 04:02:51;;;;;;;9.63;1.40;;;;;;;;;;5063218;28;20056;-47
2022/02/18 04:05:17;;;;;;;5.72;1.20;;;;;;;;;;5065626;28;20562;-47
2022/02/18 04:07:43;;;;;;;5.35;1.23;;;;;;;;;;5067036;28;20095;-47
2022/02/18 04:10:09;;;;;;;7.88;1.33;;;;;;;;;;5073081;28;20024;-47
2022/02/18 04:12:35;;;;;;;11.50;1.25;;;;;;;;;;5066741;28;20021;-49
2022/02/18 04:15:01;;;;;;;4.35;1.30;;;;;;;;;;5071537;28;20029;-47
2022/02/18 04:17:27;;;;;;;6.28;1.45;;;;;;;;;;5057343;28;20060;-51
2022/02/18 04:19:54;;;;;;;9.75;1.80;;;;;;;;;;5065353;28;20037;-49
2022/02/18 04:22:21;;;;;;;5.10;0.90;;;;;;;;;;5066467;28;20113;-48
2022/02/18 04:24:46;;;;;;;8.13;1.40;;;;;;;;;;5072656;28;20120;-50
2022/02/18 04:27:13;;;;;;;2.92;1.38;;;;;;;;;;5060317;28;20104;-49
2022/02/18 04:29:39;;;;;;;4.55;1.13;;;;;;;;;;5069742;28;20052;-48
2022/02/18 04:32:05;;;;;;;5.45;1.20;;;;;;;;;;5066517;28;20107;-47
2022/02/18 04:34:31;;;;;;;8.80;1.45;;;;;;;;;;5063783;28;20033;-47
2022/02/18 04:36:57;;;;;;;7.05;1.38;;;;;;;;;;5064664;28;20037;-50
2022/02/18 04:39:23;;;;;;;6.78;1.60;;;;;;;;;;5070045;28;20041;-48
2022/02/18 04:41:49;;;;;;;4.57;1.55;;;;;;;;;;5064351;28;20040;-49
2022/02/18 04:44:16;;;;;;;6.70;1.95;;;;;;;;;;5074898;28;20032;-49
2022/02/18 04:46:42;;;;;;;5.75;1.48;;;;;;;;;;5071243;28;20020;-50
2022/02/18 04:49:08;;;;;;;7.22;1.35;;;;;;;;;;5056361;28;20025;-47
2022/02/18 04:51:37;;;;;;;5.35;1.30;;;;;;;;;;5069772;28;20373;-50
2022/02/18 04:54:03;;;;;;;3.30;1.35;;;;;;;;;;5066889;28;20173;-49
2022/02/18 04:56:29;;;;;;;11.70;1.58;;;;;;;;;;5072512;28;20799;-49
2022/02/18 04:58:55;;;;;;;4.03;1.10;;;;;;;;;;5062967;28;20028;-47
2022/02/18 05:01:21;;;;;;;10.43;1.30;;;;;;;;;;5069651;28;20059;-49
2022/02/18 05:03:47;;;;;;;6.50;1.15;;;;;;;;;;5063066;28;20052;-49
2022/02/18 05:06:14;;;;;;;4.38;1.85;;;;;;;;;;5070615;28;20029;-48
2022/02/18 05:08:40;;;;;;;3.95;1.27;;;;;;;;;;5064678;28;20036;-49
2022/02/18 05:11:06;;;;;;;7.18;2.03;;;;;;;;;;5068979;28;20087;-47
2022/02/18 05:13:32;;;;;;;4.35;1.50;;;;;;;;;;5069203;28;20025;-49
2022/02/18 05:15:58;;;;;;;3.80;1.23;;;;;;;;;;5060174;28;20405;-48
2022/02/18 05:18:24;;;;;;;3.63;1.15;;;;;;;;;;5061964;28;20108;-48
2022/02/18 05:20:50;;;;;;;3.95;1.50;;;;;;;;;;5058406;28;20107;-52
2022/02/18 05:23:16;;;;;;;5.40;1.40;;;;;;;;;;5065924;28;20468;-52
2022/02/18 05:25:42;;;;;;;11.77;1.98;;;;;;;;;;5060181;28;20032;-50
2022/02/18 05:28:08;;;;;;;7.85;1.80;;;;;;;;;;5072265;28;20515;-49
2022/02/18 05:30:34;;;;;;;15.10;1.85;;;;;;;;;;5068112;28;20024;-48
2022/02/18 05:33:00;;;;;;;1.83;1.27;;;;;;;;;;5072861;28;20036;-47
2022/02/18 05:35:26;;;;;;;6.32;1.60;;;;;;;;;;5062228;28;20094;-47
2022/02/18 05:37:52;;;;;;;7.85;1.75;;;;;;;;;;5069288;28;20039;-47
2022/02/18 05:40:18;;;;;;;7.55;1.67;;;;;;;;;;5073338;28;20107;-48
2022/02/18 05:42:44;;;;;;;6.47;1.88;;;;;;;;;;5067327;28;20090;-51
2022/02/18 05:45:10;;;;;;;8.00;1.25;;;;;;;;;;5064632;28;20032;-49
2022/02/18 05:47:37;;;;;;;8.55;1.58;;;;;;;;;;5072636;28;20029;-48
2022/02/18 05:50:08;;;;;;;8.15;1.95;;;;;;;;;;5070122;28;20385;-47
2022/02/18 05:52:35;;;;;;;7.18;1.77;;;;;;;;;;5071211;28;20020;-49
2022/02/18 05:55:01;;;;;;;6.95;1.67;;;;;;;;;;5067404;28;20443;-50
2022/02/18 05:57:27;;;;;;;5.80;1.58;;;;;;;;;;5068230;28;20033;-51
2022/02/18 05:59:53;;;;;;;5.95;2.03;;;;;;;;;;5062482;28;20063;-49
2022/02/18 06:02:19;;;;;;;8.27;2.10;;;;;;;;;;5062047;28;20029;-48
2022/02/18 06:04:45;;;;;;;9.38;1.70;;;;;;;;;;5060971;28;20042;-49
2022/02/18 06:07:11;;;;;;;9.30;2.05;;;;;;;;;;5066672;28;20032;-48
2022/02/18 06:09:37;;;;;;;5.03;1.95;;;;;;;;;;5072337;28;20024;-48
2022/02/18 06:12:03;;;;;;;5.68;2.05;;;;;;;;;;5069048;28;20118;-49
2022/02/18 06:14:29;;;;;;;2.85;1.80;;;;;;;;;;5064630;28;20028;-47
2022/02/18 06:16:55;;;;;;;5.32;2.55;;;;;;;;;;5066761;28;20028;-47
2022/02/18 06:19:21;;;;;;;7.53;2.05;;;;;;;;;;5059742;28;20143;-48
2022/02/18 06:21:47;;;;;;;4.88;2.20;;;;;;;;;;5059589;28;20051;-48
2022/02/18 06:24:13;;;;;;;9.25;2.38;;;;;;;;;;5061030;28;20110;-47
2022/02/18 06:26:39;;;;;;;6.47;1.90;;;;;;;;;;5061844;28;20029;-48
2022/02/18 06:29:05;;;;;;;4.25;1.58;;;;;;;;;;5064426;28;20684;-49
2022/02/18 06:31:31;;;;;;;5.20;1.58;;;;;;;;;;5061664;28;20029;-47
2022/02/18 06:33:56;;;;;;;10.38;1.60;;;;;;;;;;5071438;28;20162;-52
2022/02/18 06:36:23;;;;;;;9.10;2.50;;;;;;;;;;5063779;28;20036;-49
2022/02/18 06:38:49;;;;;;;7.10;1.48;;;;;;;;;;5069186;28;20025;-49
2022/02/18 06:41:15;;;;;;;8.13;2.00;;;;;;;;;;5064408;28;20040;-48
2022/02/18 06:43:41;;;;;;;17.05;2.22;;;;;;;;;;5083340;28;20032;-48
2022/02/18 06:46:07;;;;;;;9.73;1.80;;;;;;;;;;5070555;28;20482;-47
2022/02/18 06:48:33;;;;;;;5.28;2.50;;;;;;;;;;5060267;28;20111;-47
2022/02/18 06:50:59;;;;;;;12.30;2.40;;;;;;;;;;5067660;28;20104;-48
2022/02/18 06:53:25;;;;;;;10.43;2.50;;;;;;;;;;5070497;28;20119;-48
2022/02/18 06:55:52;;;;;;;5.85;2.17;;;;;;;;;;5065910;28;20044;-48
2022/02/18 06:58:18;;;;;;;3.83;2.53;;;;;;;;;;5068052;28;20446;-47
2022/02/18 07:00:44;;;;;;;10.95;2.30;;;;;;;;;;5062196;28;20571;-50
2022/02/18 07:03:10;;;;;;;11.82;2.80;;;;;;;;;;5066068;28;20063;-45
2022/02/18 07:05:36;;;;;;;6.00;2.47;;;;;;;;;;5068923;28;20021;-46
2022/02/18 07:08:03;;;;;;;9.18;2.60;;;;;;;;;;5060051;28;20570;-52
2022/02/18 07:10:29;;;;;;;9.25;2.30;;;;;;;;;;5070233;28;20030;-48
2022/02/18 07:12:56;;;;;;;9.45;3.20;;;;;;;;;;5067032;28;20024;-48
2022/02/18 07:15:24;;;;;;;9.93;3.00;;;;;;;;;;5076328;28;20067;-50
2022/02/18 07:17:50;;;;;;;10.38;2.83;;;;;;;;;;5063439;28;20028;-48
2022/02/18 07:20:17;;;;;;;6.35;2.72;;;;;;;;;;5063795;28;20024;-47
2022/02/18 07:22:44;;;;;;;8.52;3.25;;;;;;;;;;5065073;28;20473;-47
2022/02/18 07:25:10;;;;;;;7.60;3.00;;;;;;;;;;5071361;28;20024;-47
2022/02/18 07:27:37;;;;;;;8.75;2.85;;;;;;;;;;5065774;28;20052;-47
2022/02/18 07:30:05;;;;;;;7.40;2.67;;;;;;;;;;5066286;28;20032;-48
2022/02/18 07:32:30;;;;;;;6.80;2.60;;;;;;;;;;5068170;28;20039;-47
2022/02/18 07:34:56;;;;;;;9.30;3.22;;;;;;;;;;5057425;28;20029;-49
2022/02/18 07:37:22;;;;;;;7.65;2.90;;;;;;;;;;5067834;28;20032;-51
2022/02/18 07:39:48;;;;;;;13.00;4.40;;;;;;;;;;5066343;28;20445;-48
2022/02/18 07:42:14;;;;;;;7.45;2.78;;;;;;;;;;5068713;28;20036;-48
2022/02/18 07:44:41;;;;;;;9.73;3.17;;;;;;;;;;5064999;28;20508;-51
2022/02/18 07:47:07;;;;;;;10.70;2.53;;;;;;;;;;5072713;28;20074;-49
2022/02/18 07:49:33;;;;;;;8.25;2.35;;;;;;;;;;5071774;28;20032;-47
2022/02/18 07:51:59;;;;;;;6.57;2.60;;;;;;;;;;5074424;28;20107;-48
2022/02/18 07:54:25;;;;;;;12.65;2.90;;;;;;;;;;5074385;28;20190;-48
2022/02/18 07:56:51;;;;;;;11.82;2.70;;;;;;;;;;5066523;28;20078;-47
2022/02/18 07:59:17;;;;;;;4.82;2.47;;;;;;;;;;5072318;28;20553;-47
2022/02/18 08:01:43;;;;;;;6.05;2.65;;;;;;;;;;5072265;28;20078;-47
2022/02/18 08:04:09;;;;;;;6.82;2.38;;;;;;;;;;5070125;28;20029;-48
2022/02/18 08:06:35;;;;;;;7.10;2.13;;;;;;;;;;5060996;28;20040;-48
2022/02/18 08:09:02;;;;;;;9.82;2.90;;;;;;;;;;5065121;28;20024;-50
2022/02/18 08:11:28;;;;;;;7.80;3.40;;;;;;;;;;5068563;28;20427;-50
2022/02/18 08:13:54;;;;;;;5.70;2.30;;;;;;;;;;5070901;28;20029;-49
2022/02/18 08:16:20;;;;;;;6.05;2.05;;;;;;;;;;5069970;28;20056;-47
2022/02/18 08:18:46;;;;;;;13.40;2.75;;;;;;;;;;5067416;28;20050;-48
2022/02/18 08:21:13;;;;;;;5.45;2.22;;;;;;;;;;5071161;28;20477;-48
2022/02/18 08:23:39;;;;;;;7.72;2.92;;;;;;;;;;5068051;28;20487;-48
2022/02/18 08:26:05;;;;;;;10.10;2.53;;;;;;;;;;5062466;28;20025;-49
2022/02/18 08:28:31;;;;;;;10.43;2.40;;;;;;;;;;5075650;28;20039;-48
2022/02/18 08:30:57;;;;;;;8.32;2.55;;;;;;;;;;5079968;28;20020;-47
2022/02/18 08:33:23;;;;;;;11.23;3.00;;;;;;;;;;5075280;28;20081;-48
2022/02/18 08:35:49;;;;;;;9.25;2.58;;;;;;;;;;5059945;28;20021;-48
2022/02/18 08:38:15;;;;;;;9.18;2.67;;;;;;;;;;5069729;28;20033;-47
2022/02/18 08:40:41;;;;;;;5.93;2.05;;;;;;;;;;5071789;28;20396;-45
2022/02/18 08:43:07;;;;;;;12.05;2.45;;;;;;;;;;5065966;28;20020;-49
2022/02/18 08:45:34;;;;;;;5.82;2.25;;;;;;;;;;5069080;28;20032;-47
2022/02/18 08:48:00;;;;;;;11.82;2.58;;;;;;;;;;5065580;28;20472;-46
2022/02/18 08:50:26;;;;;;;13.27;2.30;;;;;;;;;;5073019;28;20039;-47
2022/02/18 08:52:53;;;;;;;9.32;1.98;;;;;;;;;;5069848;28;20029;-50
2022/02/18 08:55:21;;;;;;;9.77;2.30;;;;;;;;;;5070562;28;20046;-46
2022/02/18 08:57:48;;;;;;;6.68;2.20;;;;;;;;;;5070619;28;20033;-47
2022/02/18 09:00:14;;;;;;;6.22;1.98;;;;;;;;;;5071054;28;20082;-45
2022/02/18 09:02:41;;;;;;;10.30;2.10;;;;;;;;;;5070730;28;20036;-45
2022/02/18 09:05:08;;;;;;;5.90;2.25;;;;;;;;;;5064375;28;20025;-45
2022/02/18 09:07:34;;;;;;;9.65;2.88;;;;;;;;;;5062389;28;20025;-45
2022/02/18 09:10:00;;;;;;;10.07;2.55;;;;;;;;;;5073441;28;20376;-45
2022/02/18 09:12:26;;;;;;;6.93;2.10;;;;;;;;;;5071340;28;20032;-45
2022/02/18 09:14:52;;;;;;;5.63;2.35;;;;;;;;;;5072859;28;20029;-45
2022/02/18 09:17:19;;;;;;;7.03;2.08;;;;;;;;;;5072880;28;20116;-46
2022/02/18 09:19:45;;;;;;;8.48;2.05;;;;;;;;;;5072163;28;20396;-45
2022/02/18 09:22:12;;;;;;;7.93;2.13;;;;;;;;;;5060516;28;20061;-48
2022/02/18 09:24:38;;;;;;;6.85;2.55;;;;;;;;;;5065728;28;20024;-48
2022/02/18 09:27:04;;;;;;;5.95;1.90;;;;;;;;;;5059616;28;20476;-49
2022/02/18 09:29:30;;;;;;;6.22;2.20;;;;;;;;;;5065968;28;20052;-45
2022/02/18 09:31:56;;;;;;;6.50;2.30;;;;;;;;;;5073533;28;20043;-45
2022/02/18 09:34:22;;;;;;;7.57;1.60;;;;;;;;;;5073873;28;20104;-49
2022/02/18 09:36:48;;;;;;;11.73;1.75;;;;;;;;;;5074022;28;20028;-46
2022/02/18 09:39:14;;;;;;;8.80;1.55;;;;;;;;;;5072463;28;20035;-45
2022/02/18 09:41:41;;;;;;;5.82;1.63;;;;;;;;;;5073621;28;20024;-45
2022/02/18 09:44:08;;;;;;;4.05;1.90;;;;;;;;;;5073800;28;20047;-45
2022/02/18 09:46:34;;;;;;;4.80;1.70;;;;;;;;;;5073822;28;20077;-45
2022/02/18 09:49:01;;;;;;;9.25;1.92;;;;;;;;;;5070454;28;20032;-46
2022/02/18 09:51:27;;;;;;;4.38;1.77;;;;;;;;;;5073235;28;20021;-45
2022/02/18 09:53:53;;;;;;;6.60;1.70;;;;;;;;;;5072494;28;20071;-45
2022/02/18 09:56:19;;;;;;;6.82;2.00;;;;;;;;;;5073479;28;20480;-45
2022/02/18 09:58:45;;;;;;;6.03;1.75;;;;;;;;;;5072130;28;20029;-46
2022/02/18 10:01:12;;;;;;;2.80;1.27;;;;;;;;;;5072491;28;20027;-50
2022/02/18 10:03:39;;;;;;;5.50;1.27;;;;;;;;;;5073138;28;20028;-47
2022/02/18 10:06:05;;;;;;;4.78;1.48;;;;;;;;;;5072048;28;20115;-48
2022/02/18 10:08:31;;;;;;;5.13;1.40;;;;;;;;;;5069266;28;20055;-48
2022/02/18 10:11:05;;;;;;;5.53;1.60;;;;;;;;;;5073123;28;20130;-45
2022/02/18 10:13:30;;;;;;;;;;;;;;;;;;5065059;28;20090;-45
2022/02/18 10:15:58;;;;;;;5.88;1.63;;;;;;;;;;5067278;28;20370;-45
2022/02/18 10:18:24;;;;;;;5.50;1.75;;;;;;;;;;5073219;28;20043;-45
2022/02/18 10:20:50;;;;;;;5.03;2.00;;;;;;;;;;5069006;28;20039;-46
2022/02/18 10:23:21;;;;;;;6.28;1.50;;;;;;;;;;5067672;28;20036;-46
2022/02/18 10:25:48;;;;;;;8.68;1.55;;;;;;;;;;5072959;28;20033;-46
2022/02/18 10:28:16;;;;;;;8.98;1.50;;;;;;;;;;5073090;28;20082;-45
2022/02/18 10:30:42;;;;;;;7.35;1.70;;;;;;;;;;5073712;28;20044;-45
2022/02/18 10:33:22;;;;;;;8.05;1.65;;;;;;;;;;5072453;28;20456;-47
2022/02/18 10:35:49;;;;;;;6.57;1.65;;;;;;;;;;5064708;28;20028;-45
2022/02/18 10:38:16;;;;;;;5.35;1.83;;;;;;;;;;5066102;28;20424;-45
2022/02/18 10:40:44;;;;;;;8.27;1.90;;;;;;;;;;5072002;28;20052;-46
2022/02/18 10:43:10;;;;;;;2.70;1.08;;;;;;;;;;5064443;28;20036;-50
2022/02/18 10:45:49;;;;;;;5.22;1.50;;;;;;;;;;5071170;28;20028;-48
2022/02/18 10:48:19;;;;;;;5.75;1.40;;;;;;;;;;5072482;28;20059;-50
2022/02/18 10:51:02;;;;;;;6.60;1.80;;;;;;;;;;5062434;28;20364;-48
2022/02/18 10:53:34;;;;;;;4.53;1.63;;;;;;;;;;5071044;28;20071;-46
2022/02/18 10:56:01;;;;;;;7.88;1.92;;;;;;;;;;5071509;28;20430;-47
2022/02/18 10:58:28;;;;;;;3.10;1.23;;;;;;;;;;5065626;28;20162;-45
2022/02/18 11:01:04;;;;;;;3.65;1.27;;;;;;;;;;5055997;28;20033;-45
2022/02/18 11:03:31;;;;;;;5.38;1.40;;;;;;;;;;5072435;28;20039;-46
2022/02/18 11:06:17;;;;;;;6.70;0.93;;;;;;;;;;5068001;28;20107;-46
2022/02/18 11:08:47;;;;;;;3.83;1.58;;;;;;;;;;5060691;28;20043;-46
2022/02/18 11:11:13;;;;;;;5.55;1.10;;;;;;;;;;5062018;28;20119;-45
2022/02/18 11:13:40;;;;;;;8.50;1.15;;;;;;;;;;5061519;28;20136;-48
2022/02/18 11:16:08;;;;;;;5.03;1.52;;;;;;;;;;5058574;28;20032;-45
2022/02/18 11:18:34;;;;;;;6.60;1.40;;;;;;;;;;5064654;28;20037;-46
2022/02/18 11:21:01;;;;;;;5.85;1.30;;;;;;;;;;5071634;28;20020;-49
2022/02/18 11:23:27;;;;;;;7.45;1.35;;;;;;;;;;5064916;28;20033;-49
2022/02/18 11:25:54;;;;;;;4.10;1.08;;;;;;;;;;5054496;28;20123;-47
2022/02/18 11:28:20;;;;;;;7.13;1.30;;;;;;;;;;5067379;28;20502;-46
2022/02/18 11:30:47;;;;;;;2.40;1.27;;;;;;;;;;5065134;28;20021;-45
2022/02/18 11:33:28;;;;;;;3.92;1.40;;;;;;;;;;5056891;28;20374;-49
2022/02/18 11:36:13;;;;;;;5.55;1.40;;;;;;;;;;5064561;28;20028;-46
2022/02/18 11:38:58;;;;;;;1.58;1.10;;;;;;;;;;5065940;28;20123;-47
2022/02/18 11:41:40;;;;;;;9.40;2.40;;;;;;;;;;5062287;28;20488;-47
2022/02/18 11:44:07;;;;;;;7.32;1.80;;;;;;;;;;5063762;28;20036;-48
2022/02/18 11:46:33;;;;;;;4.82;1.70;;;;;;;;;;5071556;28;20052;-46
2022/02/18 11:49:01;;;;;;;6.10;1.85;;;;;;;;;;5067452;28;20060;-47
2022/02/18 11:51:39;;;;;;;6.03;1.92;;;;;;;;;;5066894;28;20028;-46
2022/02/18 11:54:05;;;;;;;11.52;2.28;;;;;;;;;;5068485;28;20060;-47
2022/02/18 11:56:41;;;;;;;5.05;2.20;;;;;;;;;;5057579;28;20041;-46
2022/02/18 11:59:08;;;;;;;11.02;2.78;;;;;;;;;;5056593;28;20372;-46
2022/02/18 12:01:52;;;;;;;6.45;2.42;;;;;;;;;;5067998;28;20025;-45
2022/02/18 12:04:19;;;;;;;9.32;2.63;;;;;;;;;;5063836;28;20364;-45
2022/02/18 12:07:04;;;;;;;5.97;1.80;;;;;;;;;;5057169;28;20013;-46
2022/02/18 12:09:56;;;;;;;7.90;2.05;;;;;;;;;;5060566;28;20111;-45
2022/02/18 12:12:33;;;;;;;8.18;2.28;;;;;;;;;;5064962;28;20069;-45
2022/02/18 12:15:00;;;;;;;7.93;1.95;;;;;;;;;;5056402;28;20047;-46
2022/02/18 12:17:26;;;;;;;4.10;1.90;;;;;;;;;;5070461;28;20154;-46
2022/02/18 12:19:53;;;;;;;5.93;1.63;;;;;;;;;;5061961;28;20037;-45
2022/02/18 12:22:35;;;;;;;8.90;1.80;;;;;;;;;;5058176;28;20074;-45
2022/02/18 12:25:01;;;;;;;7.22;1.52;;;;;;;;;;5071155;28;20037;-45
2022/02/18 12:27:29;;;;;;;6.53;1.55;;;;;;;;;;5070866;28;20030;-45
2022/02/18 12:29:55;;;;;;;6.22;1.55;;;;;;;;;;5065583;28;20027;-45
2022/02/18 12:32:22;;;;;;;5.03;1.75;;;;;;;;;;5069353;28;21919;-45
2022/02/18 12:34:59;;;;;;;3.72;1.30;;;;;;;;;;5063965;28;20461;-48
2022/02/18 12:37:25;;;;;;;5.28;1.48;;;;;;;;;;5067344;28;20535;-47
2022/02/18 12:39:54;;;;;;;4.35;1.38;;;;;;;;;;5074924;28;20046;-49
2022/02/18 12:42:26;;;;;;;5.55;1.42;;;;;;;;;;5067237;28;20133;-48
2022/02/18 12:44:53;;;;;;;5.80;1.63;;;;;;;;;;5074822;28;20031;-47
2022/02/18 12:47:23;;;;;;;4.95;1.27;;;;;;;;;;5074509;28;20544;-51
2022/02/18 12:49:51;;;;;;;8.30;1.73;;;;;;;;;;5070762;28;20420;-52
2022/02/18 12:52:17;;;;;;;5.60;1.65;;;;;;;;;;5067056;28;20036;-47
2022/02/18 12:54:54;;;;;;;6.70;2.10;;;;;;;;;;5063230;28;20044;-46
2022/02/18 12:57:21;;;;;;;6.43;1.73;;;;;;;;;;5074412;28;20545;-46
2022/02/18 12:59:48;;;;;;;8.10;1.40;;;;;;;;;;5067771;28;20048;-48
2022/02/18 13:02:33;;;;;;;4.82;1.45;;;;;;;;;;5067784;28;20051;-46
2022/02/18 13:05:06;;;;;;;10.57;2.90;;;;;;;;;;5070243;28;20030;-47
2022/02/18 13:07:39;;;;;;;11.60;2.35;;;;;;;;;;5070877;28;20434;-47
2022/02/18 13:10:08;;;;;;;5.93;1.80;;;;;;;;;;5071652;28;20025;-47
2022/02/18 13:12:37;;;;;;;7.07;2.38;;;;;;;;;;5072073;28;20021;-46
2022/02/18 13:15:04;;;;;;;9.30;2.25;;;;;;;;;;5064464;28;20029;-47
2022/02/18 13:17:30;;;;;;;7.22;1.83;;;;;;;;;;5066710;28;20488;-48
2022/02/18 13:19:56;;;;;;;8.52;1.83;;;;;;;;;;5068999;28;20036;-47
2022/02/18 13:22:30;;;;;;;7.57;1.52;;;;;;;;;;5065605;28;20043;-49
2022/02/18 13:24:56;;;;;;;10.23;2.95;;;;;;;;;;5064179;28;20029;-47
2022/02/18 13:27:22;;;;;;;8.25;2.25;;;;;;;;;;5062329;28;20046;-48
2022/02/18 13:29:49;;;;;;;6.60;1.73;;;;;;;;;;5068193;28;20025;-48
2022/02/18 13:32:19;;;;;;;4.10;1.85;;;;;;;;;;5072306;28;20025;-47
2022/02/18 13:34:49;;;;;;;10.05;2.15;;;;;;;;;;5073758;28;20029;-52
2022/02/18 13:37:17;;;;;;;9.00;2.83;;;;;;;;;;5072902;28;21484;-49
2022/02/18 13:39:47;;;;;;;8.20;2.70;;;;;;;;;;5067068;28;20025;-49
2022/02/18 13:42:13;;;;;;;13.38;2.95;;;;;;;;;;5067612;28;20036;-53
2022/02/18 13:44:58;;;;;;;8.45;1.95;;;;;;;;;;5069860;28;20407;-49
2022/02/18 13:47:24;;;;;;;13.40;3.30;;;;;;;;;;5068310;28;20029;-51
2022/02/18 13:49:50;;;;;;;5.75;1.73;;;;;;;;;;5061594;28;20464;-49
2022/02/18 13:52:17;;;;;;;8.30;1.70;;;;;;;;;;5072398;28;20029;-48
2022/02/18 13:54:43;;;;;;;11.65;2.58;;;;;;;;;;5065714;28;20056;-52
2022/02/18 13:57:10;;;;;;;8.52;1.90;;;;;;;;;;5068719;28;20388;-48
2022/02/18 13:59:36;;;;;;;7.75;1.80;;;;;;;;;;5063551;28;20544;-49
2022/02/18 14:02:16;;;;;;;7.43;2.40;;;;;;;;;;5073284;28;20365;-47
2022/02/18 14:04:47;;;;;;;9.93;2.15;;;;;;;;;;5072451;28;20619;-47
2022/02/18 14:07:14;;;;;;;13.75;2.20;;;;;;;;;;5073428;28;20036;-48
2022/02/18 14:09:40;;;;;;;9.25;2.60;;;;;;;;;;5066280;28;20017;-47
2022/02/18 14:12:07;;;;;;;16.75;2.95;;;;;;;;;;5066501;28;20025;-47
2022/02/18 14:14:33;;;;;;;15.15;2.60;;;;;;;;;;5071291;28;20035;-47
2022/02/18 14:17:01;;;;;;;11.40;2.40;;;;;;;;;;5063337;28;20033;-47
2022/02/18 14:19:43;;;;;;;11.45;2.78;;;;;;;;;;5066778;28;20090;-50
2022/02/18 14:22:10;;;;;;;12.55;2.60;;;;;;;;;;5065134;28;20063;-49
2022/02/18 14:24:37;;;;;;;14.00;2.25;;;;;;;;;;5066939;28;20107;-50
2022/02/18 14:27:04;;;;;;;5.95;1.90;;;;;;;;;;5068998;28;20038;-50
2022/02/18 14:29:30;;;;;;;17.48;3.00;;;;;;;;;;5069738;28;20500;-48
2022/02/18 14:31:57;;;;;;;16.25;3.60;;;;;;;;;;5063272;28;20017;-50
2022/02/18 14:34:24;;;;;;;8.25;2.85;;;;;;;;;;5076262;28;20618;-50
2022/02/18 14:36:58;;;;;;;13.38;2.80;;;;;;;;;;5061459;28;20032;-47
2022/02/18 14:39:25;;;;;;;14.15;2.95;;;;;;;;;;5068257;28;20046;-48
2022/02/18 14:42:05;;;;;;;13.90;3.15;;;;;;;;;;5063860;28;20103;-49